createdAt,value
2018-03-22T00:01:08.062Z,29.40
2018-03-22T00:03:34.840Z,27.00
2018-03-22T00:06:02.545Z,31.65
2018-03-22T00:08:29.294Z,22.27
2018-03-22T00:10:56.075Z,28.62
2018-03-22T00:13:22.874Z,28.23
2018-03-22T00:15:49.668Z,29.20
2018-03-22T00:18:17.185Z,32.03
2018-03-22T00:20:43.939Z,24.55
2018-03-22T00:23:10.689Z,25.12
2018-03-22T00:25:37.700Z,34.97
2018-03-22T00:28:04.439Z,29.95
2018-03-22T00:30:31.251Z,27.52
2018-03-22T00:32:58.686Z,26.50
2018-03-22T00:35:26.454Z,29.05
2018-03-22T00:37:53.250Z,28.27
2018-03-22T00:40:19.955Z,26.95
2018-03-22T00:42:46.776Z,30.08
2018-03-22T00:45:13.500Z,25.65
2018-03-22T00:47:40.872Z,28.65
2018-03-22T00:50:09.282Z,28.38
2018-03-22T00:52:36.048Z,26.77
2018-03-22T00:55:02.858Z,27.37
2018-03-22T00:57:29.566Z,26.52
2018-03-22T00:59:56.280Z,29.60
2018-03-22T01:02:23.017Z,30.62
2018-03-22T01:04:50.529Z,30.42
2018-03-22T01:07:17.315Z,32.83
2018-03-22T01:09:44.131Z,28.70
2018-03-22T01:12:11.607Z,31.87
2018-03-22T01:14:38.832Z,37.58
2018-03-22T01:17:05.647Z,32.63
2018-03-22T01:19:33.060Z,29.45
2018-03-22T01:21:59.813Z,29.23
2018-03-22T01:24:26.568Z,29.05
2018-03-22T01:26:54.007Z,35.08
2018-03-22T01:29:20.796Z,30.85
2018-03-22T01:31:47.564Z,28.83
2018-03-22T01:34:14.399Z,35.50
2018-03-22T01:36:41.186Z,30.90
2018-03-22T01:39:08.821Z,34.25
2018-03-22T01:41:35.528Z,30.83
2018-03-22T01:44:02.320Z,30.73
2018-03-22T01:46:29.117Z,27.27
2018-03-22T01:48:55.845Z,26.95
2018-03-22T01:51:22.608Z,29.70
2018-03-22T01:53:49.374Z,30.27
2018-03-22T01:56:16.173Z,28.58
2018-03-22T01:58:42.862Z,27.48
2018-03-22T02:01:09.598Z,35.70
2018-03-22T02:03:37.045Z,26.12
2018-03-22T02:06:03.816Z,29.48
2018-03-22T02:08:30.542Z,33.03
2018-03-22T02:10:57.322Z,32.70
2018-03-22T02:13:24.076Z,32.08
2018-03-22T02:15:50.875Z,30.52
2018-03-22T02:18:17.628Z,26.48
2018-03-22T02:20:44.398Z,26.67
2018-03-22T02:23:11.140Z,26.45
2018-03-22T02:25:37.867Z,31.27
2018-03-22T02:28:04.598Z,34.28
2018-03-22T02:30:31.381Z,30.02
2018-03-22T02:32:58.187Z,29.98
2018-03-22T02:35:24.999Z,30.20
2018-03-22T02:40:48.704Z,29.20
2018-03-22T02:43:15.514Z,30.00
2018-03-22T02:45:42.272Z,30.88
2018-03-22T02:48:09.387Z,32.13
2018-03-22T02:50:36.135Z,31.83
2018-03-22T02:53:03.610Z,34.28
2018-03-22T02:55:30.345Z,31.30
2018-03-22T02:57:57.121Z,28.60
2018-03-22T03:00:25.221Z,29.40
2018-03-22T03:02:52.988Z,24.98
2018-03-22T03:05:19.740Z,33.70
2018-03-22T03:07:46.599Z,29.85
2018-03-22T03:10:14.094Z,28.48
2018-03-22T03:12:40.859Z,28.33
2018-03-22T03:15:07.606Z,30.77
2018-03-22T03:17:34.342Z,34.97
2018-03-22T03:20:02.923Z,31.95
2018-03-22T03:22:29.711Z,31.65
2018-03-22T03:24:56.465Z,28.60
2018-03-22T03:27:23.262Z,30.92
2018-03-22T03:29:49.972Z,30.65
2018-03-22T03:32:16.731Z,33.58
2018-03-22T03:34:43.503Z,34.97
2018-03-22T03:37:10.272Z,33.92
2018-03-22T03:39:37.068Z,35.95
2018-03-22T03:42:03.860Z,30.05
2018-03-22T03:44:30.534Z,32.05
2018-03-22T03:46:57.234Z,33.63
2018-03-22T03:49:23.939Z,34.42
2018-03-22T03:51:50.672Z,29.52
2018-03-22T03:54:17.427Z,35.17
2018-03-22T03:56:44.150Z,31.15
2018-03-22T03:59:10.930Z,34.55
2018-03-22T04:01:37.694Z,28.58
2018-03-22T04:04:04.505Z,32.75
2018-03-22T04:06:32.029Z,30.80
2018-03-22T04:08:58.841Z,35.67
2018-03-22T04:11:25.571Z,40.50
2018-03-22T04:13:52.335Z,38.17
2018-03-22T04:16:19.088Z,32.25
2018-03-22T04:18:46.433Z,38.42
2018-03-22T04:21:13.164Z,32.20
2018-03-22T04:23:40.851Z,40.08
2018-03-22T04:26:07.588Z,33.17
2018-03-22T04:28:34.312Z,36.22
2018-03-22T04:31:02.057Z,36.72
2018-03-22T04:33:28.882Z,30.15
2018-03-22T04:35:55.661Z,33.35
2018-03-22T04:38:23.140Z,34.13
2018-03-22T04:40:49.942Z,35.92
2018-03-22T04:43:16.747Z,38.60
2018-03-22T04:45:43.489Z,33.22
2018-03-22T04:48:11.003Z,41.78
2018-03-22T04:50:37.765Z,33.72
2018-03-22T04:53:04.560Z,37.92
2018-03-22T04:55:32.281Z,38.20
2018-03-22T04:57:59.010Z,39.85
2018-03-22T05:00:25.821Z,34.22
2018-03-22T05:02:52.650Z,38.45
2018-03-22T05:05:19.412Z,41.95
2018-03-22T05:07:46.807Z,44.35
2018-03-22T05:10:13.530Z,46.08
2018-03-22T05:12:41.035Z,46.37
2018-03-22T05:15:08.594Z,38.83
2018-03-22T05:17:35.380Z,46.47
2018-03-22T05:20:02.162Z,43.55
2018-03-22T05:22:28.959Z,45.50
2018-03-22T05:24:55.718Z,44.65
2018-03-22T05:27:22.464Z,46.85
2018-03-22T05:29:49.213Z,41.00
2018-03-22T05:32:16.754Z,49.00
2018-03-22T05:34:43.437Z,47.65
2018-03-22T05:37:11.480Z,45.00
2018-03-22T05:39:38.282Z,46.65
2018-03-22T05:42:05.073Z,48.90
2018-03-22T05:44:32.497Z,57.00
2018-03-22T05:46:59.221Z,47.05
2018-03-22T05:49:26.651Z,50.70
2018-03-22T05:51:53.511Z,51.20
2018-03-22T05:54:21.164Z,49.65
2018-03-22T05:56:48.727Z,44.53
2018-03-22T05:59:15.623Z,50.80
2018-03-22T06:01:42.437Z,50.35
2018-03-22T06:04:09.264Z,47.65
2018-03-22T06:06:36.018Z,43.97
2018-03-22T06:09:03.606Z,48.60
2018-03-22T06:11:30.361Z,51.63
2018-03-22T06:13:57.197Z,49.75
2018-03-22T06:16:23.956Z,53.08
2018-03-22T06:18:52.462Z,50.47
2018-03-22T06:21:19.780Z,51.42
2018-03-22T06:23:47.354Z,56.75
2018-03-22T06:26:14.236Z,48.92
2018-03-22T06:28:42.029Z,52.33
2018-03-22T06:31:09.127Z,52.88
2018-03-22T06:33:35.936Z,49.60
2018-03-22T06:36:02.685Z,50.10
2018-03-22T06:38:29.606Z,53.97
2018-03-22T06:40:56.225Z,49.15
2018-03-22T06:43:23.130Z,43.38
2018-03-22T06:45:50.617Z,48.53
2018-03-22T06:48:17.427Z,50.58
2018-03-22T06:50:44.132Z,44.17
2018-03-22T06:53:11.605Z,53.63
2018-03-22T06:55:38.983Z,47.28
2018-03-22T06:58:05.709Z,55.22
2018-03-22T07:00:32.411Z,51.15
2018-03-22T07:02:59.173Z,55.63
2018-03-22T07:05:25.812Z,54.58
2018-03-22T07:07:53.815Z,53.20
2018-03-22T07:10:20.539Z,52.47
2018-03-22T07:12:47.267Z,48.15
2018-03-22T07:15:14.165Z,51.05
2018-03-22T07:17:40.944Z,49.70
2018-03-22T07:20:07.716Z,51.22
2018-03-22T07:22:34.532Z,45.08
2018-03-22T07:25:01.241Z,46.10
2018-03-22T07:27:28.080Z,42.62
2018-03-22T07:29:54.740Z,46.45
2018-03-22T07:32:22.136Z,45.12
2018-03-22T07:34:48.898Z,42.95
2018-03-22T07:37:15.708Z,46.78
2018-03-22T07:39:42.449Z,43.70
2018-03-22T07:42:09.259Z,42.45
2018-03-22T07:44:40.132Z,43.95
2018-03-22T07:47:06.954Z,41.08
2018-03-22T07:49:33.709Z,39.63
2018-03-22T07:52:00.499Z,41.20
2018-03-22T07:54:27.294Z,43.33
2018-03-22T07:56:54.086Z,41.53
2018-03-22T07:59:20.827Z,37.33
2018-03-22T08:01:47.588Z,32.42
2018-03-22T08:04:14.330Z,38.75
2018-03-22T08:06:41.043Z,29.33
2018-03-22T08:09:08.780Z,34.83
2018-03-22T08:11:35.487Z,33.85
2018-03-22T08:14:03.565Z,36.13
2018-03-22T08:16:30.322Z,29.63
2018-03-22T08:18:57.598Z,32.47
2018-03-22T08:21:24.361Z,33.53
2018-03-22T08:23:51.132Z,29.42
2018-03-22T08:26:18.127Z,31.27
2018-03-22T08:28:45.598Z,30.40
2018-03-22T08:31:12.321Z,30.65
2018-03-22T08:33:39.051Z,34.70
2018-03-22T08:36:06.480Z,32.42
2018-03-22T08:38:33.254Z,37.40
2018-03-22T08:40:59.984Z,35.35
2018-03-22T08:43:26.734Z,32.72
2018-03-22T08:45:53.460Z,32.25
2018-03-22T08:48:20.284Z,30.85
2018-03-22T08:50:47.004Z,33.83
2018-03-22T08:53:14.441Z,28.62
2018-03-22T08:55:41.205Z,30.15
2018-03-22T08:58:07.934Z,30.83
2018-03-22T09:00:35.415Z,26.10
2018-03-22T09:03:03.165Z,29.00
2018-03-22T09:05:29.951Z,28.20
2018-03-22T09:07:56.724Z,29.20
2018-03-22T09:10:23.490Z,31.25
2018-03-22T09:12:50.251Z,26.73
2018-03-22T09:15:17.053Z,29.10
2018-03-22T09:17:43.806Z,31.75
2018-03-22T09:20:10.457Z,28.33
2018-03-22T09:22:38.049Z,30.00
2018-03-22T09:25:04.763Z,27.73
2018-03-22T09:27:31.493Z,29.17
2018-03-22T09:29:58.237Z,26.27
2018-03-22T09:32:25.786Z,28.95
2018-03-22T09:34:52.548Z,28.08
2018-03-22T09:37:19.325Z,28.25
2018-03-22T09:39:46.747Z,30.83
2018-03-22T09:42:13.462Z,33.30
2018-03-22T09:44:40.208Z,33.15
2018-03-22T09:47:06.882Z,32.33
2018-03-22T09:49:35.109Z,27.90
2018-03-22T09:52:01.934Z,27.95
2018-03-22T09:54:28.716Z,29.50
2018-03-22T09:56:56.435Z,32.03
2018-03-22T09:59:23.921Z,29.25
2018-03-22T10:01:51.373Z,32.50
2018-03-22T10:04:18.706Z,30.45
2018-03-22T10:06:45.510Z,31.65
2018-03-22T10:09:12.165Z,28.35
2018-03-22T10:11:38.836Z,31.70
2018-03-22T10:14:05.531Z,28.83
2018-03-22T10:16:50.345Z,26.17
2018-03-22T10:19:17.336Z,28.80
2018-03-22T10:21:44.367Z,26.00
2018-03-22T10:24:11.064Z,22.30
2018-03-22T10:26:37.748Z,24.45
2018-03-22T10:29:04.436Z,27.02
2018-03-22T10:31:31.216Z,23.98
2018-03-22T10:33:57.903Z,22.55
2018-03-22T10:36:24.667Z,23.12
2018-03-22T10:38:51.423Z,20.90
2018-03-22T10:41:19.569Z,25.75
2018-03-22T10:43:46.430Z,24.50
2018-03-22T10:46:13.269Z,24.65
2018-03-22T10:48:40.728Z,22.20
2018-03-22T10:51:07.406Z,25.37
2018-03-22T10:53:34.789Z,25.92
2018-03-22T10:56:01.531Z,24.95
2018-03-22T10:58:28.217Z,25.48
2018-03-22T11:01:00.964Z,27.05
2018-03-22T11:03:27.670Z,27.90
2018-03-22T11:05:54.354Z,33.80
2018-03-22T11:08:21.060Z,32.33
2018-03-22T11:10:48.508Z,32.53
2018-03-22T11:13:15.986Z,34.97
2018-03-22T11:15:43.367Z,35.75
2018-03-22T11:18:10.091Z,36.38
2018-03-22T11:20:36.754Z,33.05
2018-03-22T11:23:03.520Z,37.50
2018-03-22T11:25:30.313Z,38.53
2018-03-22T11:27:57.731Z,41.30
2018-03-22T11:30:24.428Z,41.63
2018-03-22T11:32:51.092Z,45.88
2018-03-22T11:35:17.792Z,42.55
2018-03-22T11:37:45.205Z,47.55
2018-03-22T11:40:11.950Z,45.92
2018-03-22T11:42:38.704Z,45.72
2018-03-22T11:45:06.104Z,48.05
2018-03-22T11:47:32.908Z,46.95
2018-03-22T11:49:59.759Z,49.30
2018-03-22T11:52:26.768Z,50.92
2018-03-22T11:54:53.493Z,55.22
2018-03-22T11:57:20.811Z,58.63
2018-03-22T11:59:47.589Z,55.72
2018-03-22T12:02:14.296Z,64.80
2018-03-22T12:04:41.084Z,60.88
2018-03-22T12:07:08.530Z,57.47
2018-03-22T12:09:35.268Z,59.30
2018-03-22T12:12:02.032Z,60.53
2018-03-22T12:14:28.835Z,57.50
2018-03-22T12:16:55.460Z,61.42
2018-03-22T12:19:22.266Z,60.60
2018-03-22T12:21:49.599Z,64.85
2018-03-22T12:24:16.511Z,61.45
2018-03-22T12:26:43.862Z,71.68
2018-03-22T12:29:11.332Z,68.62
2018-03-22T12:31:38.076Z,71.35
2018-03-22T12:34:04.873Z,67.25
2018-03-22T12:36:31.586Z,75.80
2018-03-22T12:38:58.319Z,77.70
2018-03-22T12:41:25.107Z,87.70
2018-03-22T12:43:51.930Z,95.40
2018-03-22T12:46:19.543Z,89.28
2018-03-22T12:48:46.305Z,86.37
2018-03-22T12:51:14.821Z,91.82
2018-03-22T12:53:41.566Z,86.65
2018-03-22T12:56:08.322Z,86.00
2018-03-22T12:58:35.684Z,87.03
2018-03-22T13:01:03.252Z,84.95
2018-03-22T13:03:30.035Z,106.25
2018-03-22T13:05:56.973Z,85.30
2018-03-22T13:08:23.821Z,82.97
2018-03-22T13:10:50.536Z,84.07
2018-03-22T13:13:17.385Z,80.25
2018-03-22T13:15:44.788Z,80.43
2018-03-22T13:18:13.843Z,82.88
2018-03-22T13:20:43.911Z,86.43
2018-03-22T13:23:12.288Z,75.20
2018-03-22T13:25:42.199Z,73.60
2018-03-22T13:28:10.508Z,73.37
2018-03-22T13:30:38.752Z,73.20
2018-03-22T13:33:06.946Z,66.30
2018-03-22T13:35:35.340Z,74.20
2018-03-22T13:38:03.762Z,71.80
2018-03-22T13:40:32.246Z,64.18
2018-03-22T13:43:00.612Z,60.17
2018-03-22T13:45:28.928Z,73.15
2018-03-22T13:47:57.347Z,69.60
2018-03-22T13:50:25.335Z,67.55
2018-03-22T13:52:53.707Z,70.35
2018-03-22T13:55:21.994Z,69.22
2018-03-22T13:57:50.308Z,68.87
2018-03-22T14:00:18.643Z,69.97
2018-03-22T14:02:46.313Z,73.20
2018-03-22T14:05:15.166Z,73.65
2018-03-22T14:07:44.579Z,80.95
2018-03-22T14:10:14.421Z,89.00
2018-03-22T14:12:43.611Z,71.50
2018-03-22T14:15:12.189Z,76.33
2018-03-22T14:17:40.614Z,85.70
2018-03-22T14:20:09.214Z,82.75
2018-03-22T14:22:37.668Z,83.83
2018-03-22T14:25:06.935Z,80.32
2018-03-22T14:27:35.410Z,75.28
2018-03-22T14:30:03.934Z,76.73
2018-03-22T14:32:32.400Z,77.35
2018-03-22T14:35:01.725Z,76.27
2018-03-22T14:37:31.262Z,69.73
2018-03-22T14:40:00.449Z,70.80
2018-03-22T14:42:29.020Z,60.23
2018-03-22T14:44:57.448Z,63.43
2018-03-22T14:47:27.619Z,63.13
2018-03-22T14:49:56.023Z,66.80
2018-03-22T14:52:25.603Z,63.77
2018-03-22T14:54:53.956Z,53.07
2018-03-22T14:57:22.383Z,52.73
2018-03-22T14:59:50.698Z,54.60
2018-03-22T15:02:19.270Z,50.97
2018-03-22T15:04:47.652Z,65.67
2018-03-22T15:07:16.989Z,46.23
2018-03-22T15:09:46.465Z,50.50
2018-03-22T15:12:16.272Z,49.43
2018-03-22T15:14:45.242Z,48.90
2018-03-22T15:17:14.552Z,44.60
2018-03-22T15:19:43.556Z,53.73
2018-03-22T15:22:13.651Z,48.37
2018-03-22T15:24:42.154Z,58.83
2018-03-22T15:27:10.746Z,56.67
2018-03-22T15:29:39.143Z,65.67
2018-03-22T15:32:07.438Z,61.50
2018-03-22T15:34:35.935Z,62.67
2018-03-22T15:37:05.472Z,76.47
2018-03-22T15:39:34.825Z,70.33
2018-03-22T15:42:03.310Z,71.90
2018-03-22T15:44:31.675Z,64.47
2018-03-22T15:47:00.736Z,58.13
2018-03-22T15:49:29.154Z,63.17
2018-03-22T15:51:57.710Z,68.57
2018-03-22T15:54:27.159Z,61.43
2018-03-22T15:56:56.479Z,64.00
2018-03-22T15:59:25.967Z,63.83
2018-03-22T16:01:54.486Z,59.43
2018-03-22T16:04:24.046Z,57.93
2018-03-22T16:06:52.607Z,57.50
2018-03-22T16:09:21.034Z,54.87
2018-03-22T16:11:49.536Z,58.47
2018-03-22T16:14:18.772Z,53.33
2018-03-22T16:16:47.342Z,54.33
2018-03-22T16:19:16.866Z,50.20
2018-03-22T16:21:46.153Z,53.97
2018-03-22T16:24:17.530Z,50.83
2018-03-22T16:26:46.951Z,53.43
2018-03-22T16:29:17.089Z,40.97
2018-03-22T16:31:46.224Z,52.00
2018-03-22T16:34:16.284Z,48.47
2018-03-22T16:36:46.449Z,38.60
2018-03-22T16:39:15.939Z,41.67
2018-03-22T16:41:46.193Z,43.23
2018-03-22T16:44:16.356Z,55.37
2018-03-22T16:46:45.594Z,37.47
2018-03-22T16:49:14.422Z,49.43
2018-03-22T16:51:43.448Z,41.30
2018-03-22T16:54:12.072Z,47.43
2018-03-22T16:56:41.680Z,44.83
2018-03-22T16:59:10.497Z,42.70
2018-03-22T17:01:39.143Z,41.50
2018-03-22T17:04:08.817Z,42.77
2018-03-22T17:06:38.393Z,43.97
2018-03-22T17:09:08.979Z,52.00
2018-03-22T17:11:39.468Z,42.30
2018-03-22T17:14:08.019Z,49.60
2018-03-22T17:16:36.578Z,49.10
2018-03-22T17:19:05.153Z,57.20
2018-03-22T17:21:33.919Z,41.70
2018-03-22T17:24:03.148Z,40.90
2018-03-22T17:26:31.876Z,56.60
2018-03-22T17:29:01.694Z,55.00
2018-03-22T17:31:31.141Z,48.77
2018-03-22T17:33:59.715Z,54.57
2018-03-22T17:36:29.244Z,43.25
2018-03-22T17:38:57.728Z,44.67
2018-03-22T17:41:26.251Z,39.50
2018-03-22T17:43:54.746Z,37.40
2018-03-22T17:46:24.323Z,37.17
2018-03-22T17:48:53.480Z,38.80
2018-03-22T17:51:23.002Z,46.47
2018-03-22T17:53:52.879Z,44.77
2018-03-22T17:56:22.578Z,41.23
2018-03-22T17:58:54.632Z,37.27
2018-03-22T18:01:25.135Z,36.75
2018-03-22T18:03:55.241Z,34.80
2018-03-22T18:06:24.639Z,39.60
2018-03-22T18:08:54.001Z,28.87
2018-03-22T18:11:23.318Z,34.00
2018-03-22T18:13:52.666Z,27.30
2018-03-22T18:16:22.792Z,32.70
2018-03-22T18:18:52.301Z,20.03
2018-03-22T18:21:22.193Z,17.67
2018-03-22T18:23:52.795Z,20.23
2018-03-22T18:26:23.940Z,20.03
2018-03-22T18:28:54.236Z,21.87
2018-03-22T18:31:25.755Z,18.43
2018-03-22T18:34:07.507Z,14.93
2018-03-22T18:36:36.653Z,18.83
2018-03-22T18:39:06.611Z,18.53
2018-03-22T18:41:39.716Z,15.97
2018-03-22T18:44:09.579Z,23.97
2018-03-22T18:46:40.102Z,19.37
2018-03-22T18:49:10.799Z,15.23
2018-03-22T18:51:40.727Z,22.17
2018-03-22T18:54:11.454Z,20.30
2018-03-22T18:56:41.122Z,15.23
2018-03-22T18:59:14.895Z,19.02
2018-03-22T19:01:45.427Z,20.57
2018-03-22T19:04:17.698Z,18.60
2018-03-22T19:06:49.511Z,19.00
2018-03-22T19:09:20.235Z,18.90
2018-03-22T19:11:50.834Z,25.87
2018-03-22T19:14:22.690Z,20.43
2018-03-22T19:16:52.808Z,23.73
2018-03-22T19:19:23.038Z,18.90
2018-03-22T19:21:52.159Z,21.20
2018-03-22T19:24:22.440Z,24.25
2018-03-22T19:26:51.757Z,21.98
2018-03-22T19:29:22.588Z,19.62
2018-03-22T19:31:55.882Z,22.50
2018-03-22T19:34:25.474Z,31.40
2018-03-22T19:36:57.555Z,25.53
2018-03-22T19:39:28.776Z,27.23
2018-03-22T19:42:00.026Z,25.77
2018-03-22T19:44:50.504Z,26.43
2018-03-22T19:47:20.474Z,29.40
2018-03-22T19:49:50.004Z,30.80
2018-03-22T19:52:20.758Z,33.10
2018-03-22T19:54:56.532Z,35.70
2018-03-22T19:57:31.258Z,36.50
2018-03-22T20:00:01.280Z,63.05
2018-03-22T20:02:33.066Z,49.22
2018-03-22T20:05:06.160Z,55.53
2018-03-22T20:07:38.863Z,57.73
2018-03-22T20:12:48.668Z,55.37
2018-03-22T20:15:18.640Z,60.20
2018-03-22T20:17:48.286Z,63.15
2018-03-22T20:20:17.724Z,69.75
2018-03-22T20:22:47.261Z,61.73
2018-03-22T20:25:18.352Z,71.83
2018-03-22T20:27:47.859Z,73.53
2018-03-22T20:30:16.506Z,70.45
2018-03-22T20:32:45.097Z,61.78
2018-03-22T20:35:15.553Z,68.40
2018-03-22T20:37:45.896Z,73.30
2018-03-22T20:40:15.250Z,66.00
2018-03-22T20:42:44.775Z,77.40
2018-03-22T20:45:14.566Z,73.57
2018-03-22T20:47:43.090Z,72.12
2018-03-22T20:50:12.472Z,63.97
2018-03-22T20:52:42.834Z,69.03
2018-03-22T20:55:12.343Z,70.28
2018-03-22T20:57:41.879Z,65.13
2018-03-22T21:00:11.028Z,64.30
2018-03-22T21:02:40.062Z,65.23
2018-03-22T21:05:10.803Z,96.43
2018-03-22T21:10:13.730Z,103.03
2018-03-22T21:12:47.634Z,107.72
2018-03-22T21:15:19.240Z,114.80
2018-03-22T21:17:54.140Z,124.62
2018-03-22T21:20:23.748Z,122.62
2018-03-22T21:22:58.229Z,131.53
2018-03-22T21:25:28.025Z,123.65
2018-03-22T21:27:57.221Z,129.70
2018-03-22T21:30:26.864Z,134.27
2018-03-22T21:32:56.556Z,130.20
2018-03-22T21:35:26.155Z,126.60
2018-03-22T21:37:57.823Z,139.03
2018-03-22T21:40:32.813Z,130.30
2018-03-22T21:43:01.499Z,138.95
2018-03-22T21:45:30.289Z,138.83
2018-03-22T21:47:59.642Z,142.77
2018-03-22T21:50:46.498Z,145.70
2018-03-22T21:53:15.158Z,138.95
2018-03-22T21:55:44.489Z,142.95
2018-03-22T21:58:16.878Z,147.90
2018-03-22T22:00:45.487Z,140.68
2018-03-22T22:03:15.017Z,138.27
2018-03-22T22:05:43.567Z,138.20
2018-03-22T22:08:12.741Z,131.10
2018-03-22T22:10:42.203Z,128.48
2018-03-22T22:13:17.980Z,122.90
2018-03-22T22:15:48.309Z,116.95
2018-03-22T22:18:18.840Z,108.78
2018-03-22T22:20:47.175Z,114.47
2018-03-22T22:23:15.637Z,118.60
2018-03-22T22:25:43.967Z,100.00
2018-03-22T22:28:12.588Z,107.12
2018-03-22T22:30:41.057Z,110.43
2018-03-22T22:33:12.024Z,94.40
2018-03-22T22:35:43.675Z,100.03
2018-03-22T22:38:13.128Z,103.60
2018-03-22T22:40:51.388Z,118.13
2018-03-22T22:43:21.910Z,104.00
2018-03-22T22:45:50.125Z,106.55
2018-03-22T22:48:17.804Z,96.22
2018-03-22T22:50:47.402Z,105.12
2018-03-22T22:53:15.821Z,108.53
2018-03-22T22:55:44.424Z,106.85
2018-03-22T22:58:12.404Z,98.95
2018-03-22T23:00:40.158Z,108.37
2018-03-22T23:03:08.993Z,111.47
2018-03-22T23:05:36.435Z,105.78
2018-03-22T23:08:05.521Z,105.60
2018-03-22T23:10:36.446Z,105.10
2018-03-22T23:13:03.989Z,114.68
2018-03-22T23:15:32.527Z,112.60
2018-03-22T23:18:01.003Z,111.53
2018-03-22T23:20:33.001Z,109.50
2018-03-22T23:22:59.643Z,110.93
2018-03-22T23:25:34.615Z,110.85
2018-03-22T23:28:05.150Z,115.37
2018-03-22T23:30:35.116Z,106.50
2018-03-22T23:33:03.664Z,92.53
2018-03-22T23:35:35.130Z,91.97
2018-03-22T23:38:04.001Z,95.68
2018-03-22T23:40:35.373Z,85.10
2018-03-22T23:43:02.109Z,88.43
2018-03-22T23:45:31.620Z,82.78
2018-03-22T23:48:00.193Z,80.62
2018-03-22T23:50:27.933Z,79.22
2018-03-22T23:52:55.405Z,79.35
2018-03-22T23:55:22.113Z,73.43
2018-03-22T23:57:48.894Z,74.82
